createdAt,value
2023-05-03T00:02:39.225Z,98404.25
2023-05-03T00:07:44.785Z,98405.19
2023-05-03T00:12:49.502Z,98407.50
2023-05-03T00:17:52.941Z,98403.34
2023-05-03T00:22:56.307Z,98393.97
2023-05-03T00:28:00.991Z,98396.31
2023-05-03T00:33:04.407Z,98402.47
2023-05-03T00:38:07.854Z,98379.22
2023-05-03T00:43:14.420Z,98382.34
2023-05-03T00:48:19.034Z,98389.41
2023-05-03T00:53:23.908Z,98391.03
2023-05-03T00:58:28.636Z,98374.22
2023-05-03T01:03:32.046Z,98387.69
2023-05-03T01:08:40.393Z,98391.56
2023-05-03T01:13:56.085Z,98396.31
2023-05-03T01:19:02.907Z,98399.81
2023-05-03T01:24:14.979Z,98389.63
2023-05-03T01:29:20.290Z,98390.13
2023-05-03T01:34:45.237Z,98390.22
2023-05-03T01:39:55.214Z,98391.34
2023-05-03T01:45:03.989Z,98396.69
2023-05-03T01:50:07.872Z,98389.38
2023-05-03T01:55:11.199Z,98397.97
2023-05-03T02:00:16.596Z,98397.63
2023-05-03T02:05:20.572Z,98396.78
2023-05-03T02:10:24.076Z,98401.47
2023-05-03T02:15:28.804Z,98403.06
2023-05-03T02:20:37.797Z,98412.19
2023-05-03T02:25:41.124Z,98414.59
2023-05-03T02:30:45.769Z,98415.69
2023-05-03T02:35:49.074Z,98415.13
2023-05-03T02:40:52.494Z,98418.81
2023-05-03T02:45:57.486Z,98424.72
2023-05-03T02:51:02.110Z,98428.91
2023-05-03T02:56:06.006Z,98430.75
2023-05-03T03:01:11.881Z,98432.50
2023-05-03T03:06:15.552Z,98439.81
2023-05-03T03:11:19.345Z,98431.09
2023-05-03T03:16:25.405Z,98426.13
2023-05-03T03:21:29.067Z,98427.38
2023-05-03T03:26:32.610Z,98419.69
2023-05-03T03:31:38.001Z,98422.56
2023-05-03T03:36:42.164Z,98424.28
2023-05-03T03:41:46.248Z,98438.47
2023-05-03T03:46:51.125Z,98434.94
2023-05-03T03:51:55.289Z,98444.72
2023-05-03T03:56:58.748Z,98448.16
2023-05-03T04:02:03.975Z,98454.84
2023-05-03T04:07:07.694Z,98467.25
2023-05-03T04:12:11.441Z,98465.13
2023-05-03T04:17:17.409Z,98476.22
2023-05-03T04:22:21.798Z,98469.97
2023-05-03T04:27:26.628Z,98472.44
2023-05-03T04:32:37.137Z,98478.59
2023-05-03T04:37:46.417Z,98484.22
2023-05-03T04:42:53.104Z,98486.56
2023-05-03T04:47:58.211Z,98486.16
2023-05-03T04:53:04.848Z,98490.28
2023-05-03T04:58:11.468Z,98483.00
2023-05-03T05:03:17.144Z,98490.66
2023-05-03T05:08:22.375Z,98494.03
2023-05-03T05:13:30.764Z,98499.75
2023-05-03T05:18:35.652Z,98507.09
2023-05-03T05:23:41.688Z,98505.84
2023-05-03T05:28:45.729Z,98513.47
2023-05-03T05:33:50.437Z,98514.56
2023-05-03T05:38:54.859Z,98514.72
2023-05-03T05:43:59.979Z,98519.06
2023-05-03T05:49:06.145Z,98509.41
2023-05-03T05:54:09.713Z,98514.94
2023-05-03T05:59:13.003Z,98514.75
2023-05-03T06:04:17.938Z,98509.44
2023-05-03T06:09:24.737Z,98516.78
2023-05-03T06:14:32.793Z,98506.44
2023-05-03T06:19:37.997Z,98509.53
2023-05-03T06:24:41.158Z,98511.22
2023-05-03T06:29:45.099Z,98505.50
2023-05-03T06:34:50.853Z,98500.66
2023-05-03T06:39:55.342Z,98504.59
2023-05-03T06:44:58.827Z,98498.59
2023-05-03T06:50:04.217Z,98496.75
2023-05-03T06:55:09.752Z,98494.22
2023-05-03T07:00:14.723Z,98497.97
2023-05-03T07:05:19.589Z,98489.09
2023-05-03T07:10:23.117Z,98486.72
2023-05-03T07:15:26.410Z,98486.00
2023-05-03T07:20:31.280Z,98478.75
2023-05-03T07:25:34.641Z,98477.25
2023-05-03T07:30:37.897Z,98473.38
2023-05-03T07:35:42.631Z,98461.78
2023-05-03T07:40:46.200Z,98461.72
2023-05-03T07:45:49.443Z,98461.84
2023-05-03T07:50:54.216Z,98466.81
2023-05-03T07:55:57.685Z,98459.31
2023-05-03T08:01:00.904Z,98468.72
2023-05-03T08:06:05.950Z,98459.53
2023-05-03T08:11:09.471Z,98453.56
2023-05-03T08:16:12.708Z,98453.38
2023-05-03T08:21:17.750Z,98448.59
2023-05-03T08:26:22.298Z,98449.22
2023-05-03T08:31:25.909Z,98438.72
2023-05-03T08:36:31.634Z,98443.91
2023-05-03T08:41:35.286Z,98446.25
2023-05-03T08:46:39.015Z,98449.81
2023-05-03T08:51:47.271Z,98429.50
2023-05-03T08:56:51.158Z,98439.13
2023-05-03T09:01:55.216Z,98430.75
2023-05-03T09:07:09.381Z,98431.63
2023-05-03T09:12:13.303Z,98440.63
2023-05-03T09:17:17.944Z,98428.69
2023-05-03T09:22:24.781Z,98433.25
2023-05-03T09:27:29.015Z,98434.81
2023-05-03T09:32:48.847Z,98431.81
2023-05-03T09:37:53.425Z,98425.41
2023-05-03T09:43:07.421Z,98435.00
2023-05-03T09:48:10.810Z,98431.16
2023-05-03T09:53:18.759Z,98425.13
2023-05-03T09:58:24.186Z,98417.59
2023-05-03T10:03:32.138Z,98427.16
2023-05-03T10:08:42.153Z,98420.59
2023-05-03T10:13:45.849Z,98404.88
2023-05-03T10:18:55.615Z,98402.72
2023-05-03T10:24:13.816Z,98393.69
2023-05-03T10:29:49.530Z,98391.69
2023-05-03T10:34:58.957Z,98394.97
2023-05-03T10:40:12.584Z,98384.31
2023-05-03T10:45:25.156Z,98380.78
2023-05-03T10:50:29.116Z,98388.47
2023-05-03T10:55:34.262Z,98385.47
2023-05-03T11:00:41.421Z,98378.41
2023-05-03T11:05:45.001Z,98372.03
2023-05-03T11:10:51.408Z,98361.78
2023-05-03T11:15:55.990Z,98361.47
2023-05-03T11:20:59.464Z,98379.22
2023-05-03T11:26:07.347Z,98376.03
2023-05-03T11:31:11.546Z,98359.25
2023-05-03T11:36:14.950Z,98356.00
2023-05-03T11:41:19.652Z,98359.78
2023-05-03T11:46:26.605Z,98355.13
2023-05-03T11:51:31.444Z,98345.78
2023-05-03T11:56:36.208Z,98345.06
2023-05-03T12:01:39.469Z,98339.75
2023-05-03T12:06:44.738Z,98338.56
2023-05-03T12:11:51.797Z,98338.47
2023-05-03T12:16:56.990Z,98324.97
2023-05-03T12:22:22.779Z,98326.34
2023-05-03T12:27:28.005Z,98323.91
2023-05-03T12:32:31.841Z,98326.72
2023-05-03T12:37:38.287Z,98316.50
2023-05-03T12:42:43.761Z,98311.56
2023-05-03T12:47:50.002Z,98312.38
2023-05-03T12:52:53.776Z,98317.63
2023-05-03T12:58:26.841Z,98313.38
2023-05-03T13:03:22.622Z,98320.84
2023-05-03T13:08:33.625Z,98306.16
2023-05-03T13:13:40.217Z,98307.56
2023-05-03T13:18:45.556Z,98299.63
2023-05-03T13:23:49.543Z,98300.13
2023-05-03T13:28:54.385Z,98291.44
2023-05-03T13:33:57.670Z,98286.66
2023-05-03T13:39:01.935Z,98279.66
2023-05-03T13:44:06.791Z,98283.38
2023-05-03T13:49:10.597Z,98287.59
2023-05-03T13:54:13.949Z,98282.38
2023-05-03T13:59:18.955Z,98278.50
2023-05-03T14:04:23.510Z,98272.53
2023-05-03T14:09:27.575Z,98262.97
2023-05-03T14:14:32.455Z,98256.06
2023-05-03T14:19:37.398Z,98251.16
2023-05-03T14:24:42.686Z,98254.78
2023-05-03T14:29:47.445Z,98231.50
2023-05-03T14:34:50.745Z,98238.16
2023-05-03T14:39:54.061Z,98231.28
2023-05-03T14:44:59.019Z,98230.91
2023-05-03T14:50:02.573Z,98238.78
2023-05-03T14:55:07.804Z,98234.28
2023-05-03T15:00:15.188Z,98224.16
2023-05-03T15:05:18.730Z,98221.44
2023-05-03T15:10:22.482Z,98220.81
2023-05-03T15:15:27.114Z,98222.16
2023-05-03T15:20:30.368Z,98232.34
2023-05-03T15:25:33.973Z,98215.91
2023-05-03T15:30:38.667Z,98217.44
2023-05-03T15:35:42.132Z,98207.84
2023-05-03T15:40:45.854Z,98202.03
2023-05-03T15:45:50.687Z,98203.63
2023-05-03T15:50:54.059Z,98191.59
2023-05-03T15:55:57.513Z,98208.56
2023-05-03T16:01:04.286Z,98199.72
2023-05-03T16:06:07.984Z,98204.09
2023-05-03T16:11:11.325Z,98194.78
2023-05-03T16:16:15.931Z,98200.41
2023-05-03T16:21:19.306Z,98205.66
2023-05-03T16:26:22.520Z,98194.41
2023-05-03T16:31:27.575Z,98184.88
2023-05-03T16:36:32.754Z,98188.25
2023-05-03T16:41:37.239Z,98185.81
2023-05-03T16:46:43.218Z,98184.63
2023-05-03T16:51:47.055Z,98199.66
2023-05-03T16:56:51.936Z,98198.44
2023-05-03T17:01:56.747Z,98200.44
2023-05-03T17:07:00.256Z,98197.16
2023-05-03T17:12:03.835Z,98194.59
2023-05-03T17:17:08.782Z,98189.00
2023-05-03T17:22:12.227Z,98199.34
2023-05-03T17:27:15.662Z,98207.75
2023-05-03T17:32:20.345Z,98205.91
2023-05-03T17:37:23.993Z,98204.47
2023-05-03T17:42:27.728Z,98204.56
2023-05-03T17:47:32.683Z,98206.41
2023-05-03T17:52:36.751Z,98202.50
2023-05-03T17:57:40.259Z,98202.84
2023-05-03T18:02:45.724Z,98211.88
2023-05-03T18:07:49.077Z,98230.72
2023-05-03T18:12:52.811Z,98228.16
2023-05-03T18:17:58.777Z,98230.28
2023-05-03T18:23:03.819Z,98225.81
2023-05-03T18:28:07.565Z,98231.13
2023-05-03T18:33:12.536Z,98234.41
2023-05-03T18:38:16.119Z,98238.41
2023-05-03T18:43:19.885Z,98245.50
2023-05-03T18:48:24.715Z,98244.34
2023-05-03T18:53:29.880Z,98253.84
2023-05-03T18:58:34.013Z,98251.44
2023-05-03T19:03:39.899Z,98259.03
2023-05-03T19:08:43.900Z,98254.16
2023-05-03T19:13:47.586Z,98264.59
2023-05-03T19:18:52.552Z,98261.81
2023-05-03T19:23:57.088Z,98258.38
2023-05-03T19:29:00.517Z,98265.59
2023-05-03T19:34:05.451Z,98259.19
2023-05-03T19:39:13.651Z,98267.13
2023-05-03T19:44:18.062Z,98270.44
2023-05-03T19:49:24.377Z,98262.19
2023-05-03T19:54:27.811Z,98268.81
2023-05-03T19:59:31.792Z,98264.78
2023-05-03T20:04:36.874Z,98272.34
2023-05-03T20:09:40.686Z,98267.22
2023-05-03T20:14:44.506Z,98266.59
2023-05-03T20:19:50.121Z,98269.31
2023-05-03T20:24:53.895Z,98279.22
2023-05-03T20:29:58.446Z,98275.78
2023-05-03T20:35:05.258Z,98270.44
2023-05-03T20:40:11.618Z,98276.84
2023-05-03T20:45:16.379Z,98275.63
2023-05-03T20:50:22.317Z,98279.22
2023-05-03T20:55:26.228Z,98285.84
2023-05-03T21:00:30.490Z,98279.44
2023-05-03T21:05:36.193Z,98282.09
2023-05-03T21:10:39.553Z,98283.81
2023-05-03T21:15:43.873Z,98291.56
2023-05-03T21:20:48.879Z,98280.38
2023-05-03T21:25:54.417Z,98279.84
2023-05-03T21:30:59.986Z,98279.41
2023-05-03T21:36:05.324Z,98271.41
2023-05-03T21:41:08.669Z,98264.56
2023-05-03T21:46:11.948Z,98259.53
2023-05-03T21:51:23.610Z,98254.47
2023-05-03T21:56:26.961Z,98255.41
2023-05-03T22:01:30.449Z,98262.69
2023-05-03T22:06:35.559Z,98260.13
2023-05-03T22:11:38.956Z,98257.56
2023-05-03T22:16:42.815Z,98250.34
2023-05-03T22:21:47.777Z,98252.50
2023-05-03T22:26:51.169Z,98255.53
2023-05-03T22:31:54.868Z,98250.25
2023-05-03T22:36:59.470Z,98246.34
2023-05-03T22:42:02.791Z,98241.03
2023-05-03T22:47:06.080Z,98236.63
2023-05-03T22:52:10.769Z,98231.31
2023-05-03T22:57:14.135Z,98232.13
2023-05-03T23:02:17.872Z,98234.19
2023-05-03T23:07:22.647Z,98234.63
2023-05-03T23:12:25.985Z,98225.25
2023-05-03T23:17:29.560Z,98230.59
2023-05-03T23:22:34.337Z,98227.59
2023-05-03T23:27:37.614Z,98222.63
2023-05-03T23:32:41.695Z,98225.50
2023-05-03T23:37:47.161Z,98220.88
2023-05-03T23:42:50.328Z,98213.06
2023-05-03T23:47:55.039Z,98212.06
2023-05-03T23:52:59.702Z,98207.84
2023-05-03T23:58:02.973Z,98194.72
